Time;durP1;ratioP1;P1;durP2;ratioP2;P2;SDS_P1;SDS_P2;PMS_P1;PMS_P2;Temp;Humidity;BMP_temperature;BMP_pressure;BME280_temperature;BME280_humidity;BME280_pressure;Samples;Min_cycle;Max_cycle;Signal;HPM_P1;HPM_P2
2024/04/18 00:02:10;;;;;;;6;4.5;;;;;;;;;;;;;
2024/04/18 00:04:35;;;;;;;7.3;4.7;;;;;;;;;;;;;
2024/04/18 00:07:00;;;;;;;5.2;4.1;;;;;;;;;;;;;
2024/04/18 00:09:25;;;;;;;5;3.7;;;;;;;;;;;;;
2024/04/18 00:11:50;;;;;;;3.7;3.1;;;;;;;;;;;;;
2024/04/18 00:14:16;;;;;;;3.6;2.7;;;;;;;;;;;;;
2024/04/18 00:16:40;;;;;;;3.6;2.4;;;;;;;;;;;;;
2024/04/18 00:19:06;;;;;;;3.5;2.3;;;;;;;;;;;;;
2024/04/18 00:21:33;;;;;;;2.1;1.9;;;;;;;;;;;;;
2024/04/18 00:23:56;;;;;;;1.9;1.7;;;;;;;;;;;;;
2024/04/18 00:26:21;;;;;;;2.3;1.9;;;;;;;;;;;;;
2024/04/18 00:28:47;;;;;;;2.2;2;;;;;;;;;;;;;
2024/04/18 00:31:12;;;;;;;1.9;1.7;;;;;;;;;;;;;
2024/04/18 00:33:37;;;;;;;1.8;1.7;;;;;;;;;;;;;
2024/04/18 00:36:02;;;;;;;2.4;1.9;;;;;;;;;;;;;
2024/04/18 00:38:27;;;;;;;1.9;1.7;;;;;;;;;;;;;
2024/04/18 00:40:52;;;;;;;2.2;1.9;;;;;;;;;;;;;
2024/04/18 00:43:18;;;;;;;2;1.8;;;;;;;;;;;;;
2024/04/18 00:45:43;;;;;;;2.7;1.9;;;;;;;;;;;;;
2024/04/18 00:48:08;;;;;;;3.3;2.1;;;;;;;;;;;;;
2024/04/18 00:50:33;;;;;;;3.4;2.2;;;;;;;;;;;;;
2024/04/18 00:52:58;;;;;;;2.5;2.2;;;;;;;;;;;;;
2024/04/18 00:55:23;;;;;;;2.6;1.8;;;;;;;;;;;;;
2024/04/18 00:57:48;;;;;;;2.5;1.9;;;;;;;;;;;;;
2024/04/18 01:00:13;;;;;;;2.2;2;;;;;;;;;;;;;
2024/04/18 01:02:38;;;;;;;2;1.8;;;;;;;;;;;;;
2024/04/18 01:05:03;;;;;;;2.2;2;;;;;;;;;;;;;
2024/04/18 01:07:29;;;;;;;2.2;2;;;;;;;;;;;;;
2024/04/18 01:09:54;;;;;;;2.3;2;;;;;;;;;;;;;
2024/04/18 01:12:19;;;;;;;4.1;2.3;;;;;;;;;;;;;
2024/04/18 01:14:44;;;;;;;2.4;2.2;;;;;;;;;;;;;
2024/04/18 01:17:10;;;;;;;3.6;2.7;;;;;;;;;;;;;
2024/04/18 01:19:34;;;;;;;3.4;3.1;;;;;;;;;;;;;
2024/04/18 01:21:59;;;;;;;3.5;3;;;;;;;;;;;;;
2024/04/18 01:24:24;;;;;;;3.4;2.8;;;;;;;;;;;;;
2024/04/18 01:26:49;;;;;;;11.3;6.7;;;;;;;;;;;;;
2024/04/18 01:29:15;;;;;;;23.6;12.2;;;;;;;;;;;;;
2024/04/18 01:31:40;;;;;;;7.5;4.8;;;;;;;;;;;;;
2024/04/18 01:34:05;;;;;;;5.1;3.9;;;;;;;;;;;;;
2024/04/18 01:36:30;;;;;;;4.3;3.5;;;;;;;;;;;;;
2024/04/18 01:38:55;;;;;;;4.4;3.6;;;;;;;;;;;;;
2024/04/18 01:41:21;;;;;;;4.7;3.5;;;;;;;;;;;;;
2024/04/18 01:43:46;;;;;;;4.1;3.3;;;;;;;;;;;;;
2024/04/18 01:46:11;;;;;;;4.8;3.5;;;;;;;;;;;;;
2024/04/18 01:48:36;;;;;;;4.4;3;;;;;;;;;;;;;
2024/04/18 01:51:02;;;;;;;3.5;3;;;;;;;;;;;;;
2024/04/18 01:53:28;;;;;;;4.2;3.1;;;;;;;;;;;;;
2024/04/18 01:55:51;;;;;;;3.3;2.9;;;;;;;;;;;;;
2024/04/18 01:58:17;;;;;;;3.4;3;;;;;;;;;;;;;
2024/04/18 02:00:42;;;;;;;3.7;2.7;;;;;;;;;;;;;
2024/04/18 02:03:07;;;;;;;3.3;2.6;;;;;;;;;;;;;
2024/04/18 02:05:32;;;;;;;3.2;2.4;;;;;;;;;;;;;
2024/04/18 02:07:57;;;;;;;3.1;2.2;;;;;;;;;;;;;
2024/04/18 02:10:22;;;;;;;2.5;2;;;;;;;;;;;;;
2024/04/18 02:12:47;;;;;;;2.4;2.2;;;;;;;;;;;;;
2024/04/18 02:15:12;;;;;;;2.2;2;;;;;;;;;;;;;
2024/04/18 02:17:38;;;;;;;3.2;2.1;;;;;;;;;;;;;
2024/04/18 02:20:03;;;;;;;2.4;1.7;;;;;;;;;;;;;
2024/04/18 02:22:28;;;;;;;1.7;1.6;;;;;;;;;;;;;
2024/04/18 02:24:53;;;;;;;1.7;1.6;;;;;;;;;;;;;
2024/04/18 02:27:18;;;;;;;2;1.8;;;;;;;;;;;;;
2024/04/18 02:29:43;;;;;;;2.7;2.2;;;;;;;;;;;;;
2024/04/18 02:32:08;;;;;;;3.4;2.7;;;;;;;;;;;;;
2024/04/18 02:34:33;;;;;;;3.1;2.6;;;;;;;;;;;;;
2024/04/18 02:36:59;;;;;;;3.4;2.5;;;;;;;;;;;;;
2024/04/18 02:39:24;;;;;;;2.9;2.5;;;;;;;;;;;;;
2024/04/18 02:41:49;;;;;;;3.4;2.6;;;;;;;;;;;;;
2024/04/18 02:44:14;;;;;;;2.9;2.4;;;;;;;;;;;;;
2024/04/18 02:46:39;;;;;;;2.9;2.6;;;;;;;;;;;;;
2024/04/18 02:49:04;;;;;;;4.3;2.7;;;;;;;;;;;;;
2024/04/18 02:51:29;;;;;;;3.5;2.9;;;;;;;;;;;;;
2024/04/18 02:53:54;;;;;;;4.3;2.9;;;;;;;;;;;;;
2024/04/18 02:56:19;;;;;;;2.9;2.6;;;;;;;;;;;;;
2024/04/18 02:58:44;;;;;;;3.7;3.3;;;;;;;;;;;;;
2024/04/18 03:01:10;;;;;;;4;3.1;;;;;;;;;;;;;
2024/04/18 03:03:35;;;;;;;4.3;3.1;;;;;;;;;;;;;
2024/04/18 03:06:00;;;;;;;4.4;3.4;;;;;;;;;;;;;
2024/04/18 03:08:25;;;;;;;4.4;3.6;;;;;;;;;;;;;
2024/04/18 03:10:52;;;;;;;4.5;3.6;;;;;;;;;;;;;
2024/04/18 03:13:15;;;;;;;5.6;4;;;;;;;;;;;;;
2024/04/18 03:15:40;;;;;;;6.4;4.2;;;;;;;;;;;;;
2024/04/18 03:18:06;;;;;;;5.9;3.9;;;;;;;;;;;;;
2024/04/18 03:20:31;;;;;;;5.7;3.9;;;;;;;;;;;;;
2024/04/18 03:22:56;;;;;;;6.3;3.5;;;;;;;;;;;;;
2024/04/18 03:25:21;;;;;;;4.5;3.5;;;;;;;;;;;;;
2024/04/18 03:27:46;;;;;;;3.8;3.2;;;;;;;;;;;;;
2024/04/18 03:30:11;;;;;;;3.3;3;;;;;;;;;;;;;
2024/04/18 03:32:37;;;;;;;3.5;2.8;;;;;;;;;;;;;
2024/04/18 03:35:02;;;;;;;4;2.9;;;;;;;;;;;;;
2024/04/18 03:37:27;;;;;;;4;3.3;;;;;;;;;;;;;
2024/04/18 03:39:52;;;;;;;5.4;3.8;;;;;;;;;;;;;
2024/04/18 03:42:17;;;;;;;5;4.3;;;;;;;;;;;;;
2024/04/18 03:44:42;;;;;;;5.2;4;;;;;;;;;;;;;
2024/04/18 03:47:07;;;;;;;5.3;4.7;;;;;;;;;;;;;
2024/04/18 03:49:32;;;;;;;6.9;5.1;;;;;;;;;;;;;
2024/04/18 03:52:05;;;;;;;5.1;4.3;;;;;;;;;;;;;
2024/04/18 03:54:23;;;;;;;5;4.1;;;;;;;;;;;;;
2024/04/18 03:56:47;;;;;;;4.7;4;;;;;;;;;;;;;
2024/04/18 03:59:12;;;;;;;5.1;4.1;;;;;;;;;;;;;
2024/04/18 04:02:31;;;;;;;4.3;3.5;;;;;;;;;;;;;
2024/04/18 04:04:56;;;;;;;3.9;3.5;;;;;;;;;;;;;
2024/04/18 04:07:21;;;;;;;4.2;3.7;;;;;;;;;;;;;
2024/04/18 04:09:46;;;;;;;4.7;4.2;;;;;;;;;;;;;
2024/04/18 04:12:11;;;;;;;4.9;4;;;;;;;;;;;;;
2024/04/18 04:14:36;;;;;;;3.7;2.8;;;;;;;;;;;;;
2024/04/18 04:17:01;;;;;;;2.6;2.4;;;;;;;;;;;;;
2024/04/18 04:19:26;;;;;;;2.7;2.3;;;;;;;;;;;;;
2024/04/18 04:21:52;;;;;;;3.1;2.3;;;;;;;;;;;;;
2024/04/18 04:24:17;;;;;;;3.3;2.4;;;;;;;;;;;;;
2024/04/18 04:26:42;;;;;;;3.8;3.3;;;;;;;;;;;;;
2024/04/18 04:29:07;;;;;;;2.6;2.4;;;;;;;;;;;;;
2024/04/18 04:31:32;;;;;;;1.9;1.7;;;;;;;;;;;;;
2024/04/18 04:33:58;;;;;;;2.2;1.8;;;;;;;;;;;;;
2024/04/18 04:36:22;;;;;;;2.3;1.9;;;;;;;;;;;;;
2024/04/18 04:38:47;;;;;;;1.9;1.8;;;;;;;;;;;;;
2024/04/18 04:41:13;;;;;;;2.6;2.4;;;;;;;;;;;;;
2024/04/18 04:43:38;;;;;;;2.6;2.2;;;;;;;;;;;;;
2024/04/18 04:46:04;;;;;;;2.5;2.3;;;;;;;;;;;;;
2024/04/18 04:48:28;;;;;;;2.7;2.4;;;;;;;;;;;;;
2024/04/18 04:50:53;;;;;;;3.4;2.7;;;;;;;;;;;;;
2024/04/18 04:53:18;;;;;;;3;2.7;;;;;;;;;;;;;
2024/04/18 04:55:43;;;;;;;3.1;2.8;;;;;;;;;;;;;
2024/04/18 04:58:10;;;;;;;2.7;2.5;;;;;;;;;;;;;
2024/04/18 05:00:34;;;;;;;3.5;3.1;;;;;;;;;;;;;
2024/04/18 05:02:59;;;;;;;3.2;2.9;;;;;;;;;;;;;
2024/04/18 05:05:24;;;;;;;3.5;3;;;;;;;;;;;;;
2024/04/18 05:07:49;;;;;;;4;3.6;;;;;;;;;;;;;
2024/04/18 05:10:14;;;;;;;3.5;2.9;;;;;;;;;;;;;
2024/04/18 05:12:40;;;;;;;3.6;3.3;;;;;;;;;;;;;
2024/04/18 05:15:05;;;;;;;3.9;3.2;;;;;;;;;;;;;
2024/04/18 05:17:30;;;;;;;3.5;3;;;;;;;;;;;;;
2024/04/18 05:19:55;;;;;;;3.8;2.9;;;;;;;;;;;;;
2024/04/18 05:22:20;;;;;;;3.6;2.9;;;;;;;;;;;;;
2024/04/18 05:24:45;;;;;;;3.4;3;;;;;;;;;;;;;
2024/04/18 05:27:10;;;;;;;3.6;3;;;;;;;;;;;;;
2024/04/18 05:32:02;;;;;;;3;2.7;;;;;;;;;;;;;
2024/04/18 05:34:26;;;;;;;3.3;2.7;;;;;;;;;;;;;
2024/04/18 05:36:51;;;;;;;2.8;2.3;;;;;;;;;;;;;
2024/04/18 05:39:16;;;;;;;2.7;2.3;;;;;;;;;;;;;
2024/04/18 05:41:41;;;;;;;3.3;2.5;;;;;;;;;;;;;
2024/04/18 05:44:06;;;;;;;3;2.7;;;;;;;;;;;;;
2024/04/18 05:46:31;;;;;;;2.5;2.3;;;;;;;;;;;;;
2024/04/18 05:48:57;;;;;;;2.1;1.9;;;;;;;;;;;;;
2024/04/18 05:51:21;;;;;;;2.3;2.1;;;;;;;;;;;;;
2024/04/18 05:53:46;;;;;;;1.6;1.5;;;;;;;;;;;;;
2024/04/18 05:56:12;;;;;;;2;1.5;;;;;;;;;;;;;
2024/04/18 05:58:38;;;;;;;3.4;2.2;;;;;;;;;;;;;
2024/04/18 06:01:04;;;;;;;3.3;2.1;;;;;;;;;;;;;
2024/04/18 06:03:27;;;;;;;4.5;2.4;;;;;;;;;;;;;
2024/04/18 06:05:52;;;;;;;2.4;1.8;;;;;;;;;;;;;
2024/04/18 06:08:17;;;;;;;1.9;1.8;;;;;;;;;;;;;
2024/04/18 06:10:42;;;;;;;1.7;1.6;;;;;;;;;;;;;
2024/04/18 06:13:09;;;;;;;1.9;1.7;;;;;;;;;;;;;
2024/04/18 06:15:32;;;;;;;2.2;2;;;;;;;;;;;;;
2024/04/18 06:17:57;;;;;;;3.2;2.2;;;;;;;;;;;;;
2024/04/18 06:20:23;;;;;;;2;1.8;;;;;;;;;;;;;
2024/04/18 06:22:48;;;;;;;5.4;4.9;;;;;;;;;;;;;
2024/04/18 06:25:15;;;;;;;3;2.5;;;;;;;;;;;;;
2024/04/18 06:27:38;;;;;;;2.6;2.2;;;;;;;;;;;;;
2024/04/18 06:30:03;;;;;;;2.6;2;;;;;;;;;;;;;
2024/04/18 06:32:28;;;;;;;3.1;1.8;;;;;;;;;;;;;
2024/04/18 06:34:53;;;;;;;2.5;1.8;;;;;;;;;;;;;
2024/04/18 06:37:19;;;;;;;2.8;2.1;;;;;;;;;;;;;
2024/04/18 06:39:43;;;;;;;2.4;1.8;;;;;;;;;;;;;
2024/04/18 06:42:08;;;;;;;2.1;1.8;;;;;;;;;;;;;
2024/04/18 06:44:34;;;;;;;2.7;2;;;;;;;;;;;;;
2024/04/18 06:46:59;;;;;;;1.8;1.6;;;;;;;;;;;;;
2024/04/18 06:49:24;;;;;;;1.9;1.7;;;;;;;;;;;;;
2024/04/18 06:51:49;;;;;;;2.3;2.1;;;;;;;;;;;;;
2024/04/18 06:54:14;;;;;;;2.8;1.9;;;;;;;;;;;;;
2024/04/18 06:56:39;;;;;;;2.6;2;;;;;;;;;;;;;
2024/04/18 06:59:04;;;;;;;3.5;2.3;;;;;;;;;;;;;
2024/04/18 07:01:30;;;;;;;3.8;2.7;;;;;;;;;;;;;
2024/04/18 07:03:55;;;;;;;3;2.4;;;;;;;;;;;;;
2024/04/18 07:06:20;;;;;;;2.8;2.5;;;;;;;;;;;;;
2024/04/18 07:08:45;;;;;;;3.1;2.7;;;;;;;;;;;;;
2024/04/18 07:11:10;;;;;;;3.2;2.9;;;;;;;;;;;;;
2024/04/18 07:13:35;;;;;;;3.7;3.1;;;;;;;;;;;;;
2024/04/18 07:16:01;;;;;;;4.1;3.1;;;;;;;;;;;;;
2024/04/18 07:18:26;;;;;;;3.1;2.8;;;;;;;;;;;;;
2024/04/18 07:20:51;;;;;;;2.6;2.3;;;;;;;;;;;;;
2024/04/18 07:23:16;;;;;;;2.4;2.1;;;;;;;;;;;;;
2024/04/18 07:25:41;;;;;;;3.1;1.9;;;;;;;;;;;;;
2024/04/18 07:28:06;;;;;;;2.8;2.1;;;;;;;;;;;;;
2024/04/18 07:30:31;;;;;;;2.7;2;;;;;;;;;;;;;
2024/04/18 07:32:56;;;;;;;2.9;2.4;;;;;;;;;;;;;
2024/04/18 07:35:23;;;;;;;3.5;2.5;;;;;;;;;;;;;
2024/04/18 07:37:47;;;;;;;3.1;2.4;;;;;;;;;;;;;
2024/04/18 07:40:15;;;;;;;2.4;2.1;;;;;;;;;;;;;
2024/04/18 07:42:37;;;;;;;3.5;2.2;;;;;;;;;;;;;
2024/04/18 07:45:02;;;;;;;2.2;1.9;;;;;;;;;;;;;
2024/04/18 07:47:27;;;;;;;1.7;1.6;;;;;;;;;;;;;
2024/04/18 07:49:52;;;;;;;1.5;1.4;;;;;;;;;;;;;
2024/04/18 07:52:17;;;;;;;2.4;1.5;;;;;;;;;;;;;
2024/04/18 07:54:43;;;;;;;2;1.3;;;;;;;;;;;;;
2024/04/18 07:57:08;;;;;;;1.9;1.3;;;;;;;;;;;;;
2024/04/18 07:59:33;;;;;;;1.9;1.3;;;;;;;;;;;;;
2024/04/18 08:01:58;;;;;;;1.5;1.4;;;;;;;;;;;;;
2024/04/18 08:04:23;;;;;;;1.5;1.4;;;;;;;;;;;;;
2024/04/18 08:06:48;;;;;;;1.5;1.4;;;;;;;;;;;;;
2024/04/18 08:09:13;;;;;;;1.9;1.6;;;;;;;;;;;;;
2024/04/18 08:11:40;;;;;;;2.6;1.8;;;;;;;;;;;;;
2024/04/18 08:14:03;;;;;;;1.4;1.3;;;;;;;;;;;;;
2024/04/18 08:16:28;;;;;;;3.2;1.6;;;;;;;;;;;;;
2024/04/18 08:18:53;;;;;;;2.1;1.7;;;;;;;;;;;;;
2024/04/18 08:21:18;;;;;;;1.7;1.5;;;;;;;;;;;;;
2024/04/18 08:23:50;;;;;;;2.2;1.3;;;;;;;;;;;;;
2024/04/18 08:26:09;;;;;;;2.6;1.4;;;;;;;;;;;;;
2024/04/18 08:28:34;;;;;;;2.2;2;;;;;;;;;;;;;
2024/04/18 08:30:59;;;;;;;2;1.8;;;;;;;;;;;;;
2024/04/18 08:33:24;;;;;;;2.1;1.1;;;;;;;;;;;;;
2024/04/18 08:35:50;;;;;;;1.2;1.1;;;;;;;;;;;;;
2024/04/18 08:38:14;;;;;;;1.4;1.3;;;;;;;;;;;;;
2024/04/18 08:40:41;;;;;;;1.6;1.5;;;;;;;;;;;;;
2024/04/18 08:43:05;;;;;;;1.7;1.6;;;;;;;;;;;;;
2024/04/18 08:45:33;;;;;;;1.6;1.5;;;;;;;;;;;;;
2024/04/18 08:47:55;;;;;;;3;1.9;;;;;;;;;;;;;
2024/04/18 08:50:20;;;;;;;2;1.2;;;;;;;;;;;;;
2024/04/18 08:52:45;;;;;;;1.7;1.4;;;;;;;;;;;;;
2024/04/18 08:55:10;;;;;;;1.5;1.4;;;;;;;;;;;;;
2024/04/18 08:57:35;;;;;;;1.4;1.2;;;;;;;;;;;;;
2024/04/18 09:00:01;;;;;;;1.5;1.4;;;;;;;;;;;;;
2024/04/18 09:02:26;;;;;;;1.9;1.2;;;;;;;;;;;;;
2024/04/18 09:04:51;;;;;;;1.2;1.1;;;;;;;;;;;;;
2024/04/18 09:07:16;;;;;;;2;1.5;;;;;;;;;;;;;
2024/04/18 09:09:42;;;;;;;3.3;1.6;;;;;;;;;;;;;
2024/04/18 09:12:07;;;;;;;1.7;1.6;;;;;;;;;;;;;
2024/04/18 09:14:32;;;;;;;1.4;1.3;;;;;;;;;;;;;
2024/04/18 09:16:57;;;;;;;1.2;1.1;;;;;;;;;;;;;
2024/04/18 09:19:22;;;;;;;2.3;1.1;;;;;;;;;;;;;
2024/04/18 09:21:47;;;;;;;0.8;0.8;;;;;;;;;;;;;
2024/04/18 09:24:12;;;;;;;1.5;1.4;;;;;;;;;;;;;
2024/04/18 09:26:37;;;;;;;1.1;1;;;;;;;;;;;;;
2024/04/18 09:29:03;;;;;;;1.2;0.9;;;;;;;;;;;;;
2024/04/18 09:31:28;;;;;;;1.4;1.3;;;;;;;;;;;;;
2024/04/18 09:33:53;;;;;;;1.8;1.7;;;;;;;;;;;;;
2024/04/18 09:36:18;;;;;;;1.7;1.3;;;;;;;;;;;;;
2024/04/18 09:38:43;;;;;;;1.4;1.2;;;;;;;;;;;;;
2024/04/18 09:41:08;;;;;;;1;0.9;;;;;;;;;;;;;
2024/04/18 09:43:33;;;;;;;1.2;0.8;;;;;;;;;;;;;
2024/04/18 09:45:58;;;;;;;1.8;1.4;;;;;;;;;;;;;
2024/04/18 09:48:24;;;;;;;1.3;0.9;;;;;;;;;;;;;
2024/04/18 09:50:48;;;;;;;3.5;1.8;;;;;;;;;;;;;
2024/04/18 09:53:14;;;;;;;1.1;0.9;;;;;;;;;;;;;
2024/04/18 09:55:39;;;;;;;0.8;0.8;;;;;;;;;;;;;
2024/04/18 09:58:05;;;;;;;1;0.7;;;;;;;;;;;;;
2024/04/18 10:00:29;;;;;;;1;0.8;;;;;;;;;;;;;
2024/04/18 10:02:54;;;;;;;1;0.7;;;;;;;;;;;;;
2024/04/18 10:05:19;;;;;;;1.1;0.9;;;;;;;;;;;;;
2024/04/18 10:07:45;;;;;;;1.2;1.1;;;;;;;;;;;;;
2024/04/18 10:10:10;;;;;;;2.1;1.2;;;;;;;;;;;;;
2024/04/18 10:12:35;;;;;;;1.2;0.9;;;;;;;;;;;;;
2024/04/18 10:15:00;;;;;;;1;0.9;;;;;;;;;;;;;
2024/04/18 10:17:25;;;;;;;1;0.8;;;;;;;;;;;;;
2024/04/18 10:19:50;;;;;;;1.1;0.8;;;;;;;;;;;;;
2024/04/18 10:22:23;;;;;;;1.5;1.4;;;;;;;;;;;;;
2024/04/18 10:24:40;;;;;;;15.2;9.1;;;;;;;;;;;;;
2024/04/18 10:27:06;;;;;;;4;2.5;;;;;;;;;;;;;
2024/04/18 10:29:31;;;;;;;7.6;4.3;;;;;;;;;;;;;
2024/04/18 10:31:56;;;;;;;1.3;0.9;;;;;;;;;;;;;
2024/04/18 10:34:23;;;;;;;0.7;0.7;;;;;;;;;;;;;
2024/04/18 10:36:46;;;;;;;0.8;0.8;;;;;;;;;;;;;
2024/04/18 10:39:11;;;;;;;0.9;0.9;;;;;;;;;;;;;
2024/04/18 10:41:41;;;;;;;0.7;0.7;;;;;;;;;;;;;
2024/04/18 10:44:04;;;;;;;0.6;0.5;;;;;;;;;;;;;
2024/04/18 10:46:29;;;;;;;2;0.8;;;;;;;;;;;;;
2024/04/18 10:48:54;;;;;;;3.1;1.9;;;;;;;;;;;;;
2024/04/18 10:51:19;;;;;;;2.6;1.5;;;;;;;;;;;;;
2024/04/18 10:53:44;;;;;;;2.1;1.3;;;;;;;;;;;;;
2024/04/18 10:56:09;;;;;;;1;0.9;;;;;;;;;;;;;
2024/04/18 10:58:34;;;;;;;2.2;1.2;;;;;;;;;;;;;
2024/04/18 11:01:00;;;;;;;2.4;1.5;;;;;;;;;;;;;
2024/04/18 11:03:24;;;;;;;2.5;1.7;;;;;;;;;;;;;
2024/04/18 11:05:49;;;;;;;2.8;1.6;;;;;;;;;;;;;
2024/04/18 11:08:14;;;;;;;1.3;1.2;;;;;;;;;;;;;
2024/04/18 11:10:39;;;;;;;2.7;1.4;;;;;;;;;;;;;
2024/04/18 11:13:04;;;;;;;1.1;1;;;;;;;;;;;;;
2024/04/18 11:15:29;;;;;;;1.6;1.2;;;;;;;;;;;;;
2024/04/18 11:17:55;;;;;;;0.8;0.8;;;;;;;;;;;;;
2024/04/18 11:20:20;;;;;;;1.5;1;;;;;;;;;;;;;
2024/04/18 11:22:45;;;;;;;0.8;0.8;;;;;;;;;;;;;
2024/04/18 11:25:13;;;;;;;1.3;1;;;;;;;;;;;;;
2024/04/18 11:27:35;;;;;;;4.2;2;;;;;;;;;;;;;
2024/04/18 11:30:01;;;;;;;1.9;1;;;;;;;;;;;;;
2024/04/18 11:32:25;;;;;;;0.9;0.9;;;;;;;;;;;;;
2024/04/18 11:34:50;;;;;;;1.2;0.7;;;;;;;;;;;;;
2024/04/18 11:37:15;;;;;;;1.1;1;;;;;;;;;;;;;
2024/04/18 11:39:41;;;;;;;1;0.9;;;;;;;;;;;;;
2024/04/18 11:42:06;;;;;;;1.5;1.1;;;;;;;;;;;;;
2024/04/18 11:44:31;;;;;;;2.1;1.9;;;;;;;;;;;;;
2024/04/18 11:46:56;;;;;;;2.5;1.6;;;;;;;;;;;;;
2024/04/18 11:49:21;;;;;;;1.6;1.5;;;;;;;;;;;;;
2024/04/18 11:51:46;;;;;;;1.4;1.3;;;;;;;;;;;;;
2024/04/18 11:54:11;;;;;;;1;1;;;;;;;;;;;;;
2024/04/18 11:56:36;;;;;;;1;1;;;;;;;;;;;;;
2024/04/18 11:59:02;;;;;;;0.9;0.8;;;;;;;;;;;;;
2024/04/18 12:01:27;;;;;;;0.7;0.7;;;;;;;;;;;;;
2024/04/18 12:03:52;;;;;;;0.9;0.6;;;;;;;;;;;;;
2024/04/18 12:06:17;;;;;;;0.6;0.6;;;;;;;;;;;;;
2024/04/18 12:08:42;;;;;;;0.7;0.6;;;;;;;;;;;;;
2024/04/18 12:11:07;;;;;;;0.6;0.6;;;;;;;;;;;;;
2024/04/18 12:13:32;;;;;;;0.6;0.6;;;;;;;;;;;;;
2024/04/18 12:15:57;;;;;;;0.8;0.8;;;;;;;;;;;;;
2024/04/18 12:18:23;;;;;;;1.1;0.8;;;;;;;;;;;;;
2024/04/18 12:20:48;;;;;;;1.4;1;;;;;;;;;;;;;
2024/04/18 12:23:13;;;;;;;0.9;0.9;;;;;;;;;;;;;
2024/04/18 12:25:38;;;;;;;1.2;1.1;;;;;;;;;;;;;
2024/04/18 12:28:03;;;;;;;3.1;1.2;;;;;;;;;;;;;
2024/04/18 12:30:28;;;;;;;1.1;1;;;;;;;;;;;;;
2024/04/18 12:32:54;;;;;;;1.9;1.1;;;;;;;;;;;;;
2024/04/18 12:35:18;;;;;;;1.8;1.2;;;;;;;;;;;;;
2024/04/18 12:37:43;;;;;;;0.8;0.8;;;;;;;;;;;;;
2024/04/18 12:40:08;;;;;;;0.9;0.9;;;;;;;;;;;;;
2024/04/18 12:42:35;;;;;;;0.9;0.9;;;;;;;;;;;;;
2024/04/18 12:44:59;;;;;;;1.5;1.2;;;;;;;;;;;;;
2024/04/18 12:47:25;;;;;;;1.4;1.2;;;;;;;;;;;;;
2024/04/18 12:49:50;;;;;;;1.6;1;;;;;;;;;;;;;
2024/04/18 12:52:15;;;;;;;0.8;0.8;;;;;;;;;;;;;
2024/04/18 12:54:41;;;;;;;2.5;0.9;;;;;;;;;;;;;
2024/04/18 12:57:06;;;;;;;1;0.9;;;;;;;;;;;;;
2024/04/18 12:59:31;;;;;;;0.7;0.7;;;;;;;;;;;;;
2024/04/18 13:01:56;;;;;;;0.9;0.9;;;;;;;;;;;;;
2024/04/18 13:04:22;;;;;;;1.1;1;;;;;;;;;;;;;
2024/04/18 13:06:47;;;;;;;0.4;0.4;;;;;;;;;;;;;
2024/04/18 13:09:12;;;;;;;0.5;0.4;;;;;;;;;;;;;
2024/04/18 13:11:37;;;;;;;0.4;0.4;;;;;;;;;;;;;
2024/04/18 13:14:04;;;;;;;0.4;0.4;;;;;;;;;;;;;
2024/04/18 13:16:28;;;;;;;0.3;0.3;;;;;;;;;;;;;
2024/04/18 13:18:53;;;;;;;0.5;0.4;;;;;;;;;;;;;
2024/04/18 13:21:18;;;;;;;1;0.4;;;;;;;;;;;;;
2024/04/18 13:23:43;;;;;;;0.5;0.5;;;;;;;;;;;;;
2024/04/18 13:26:08;;;;;;;0.5;0.5;;;;;;;;;;;;;
2024/04/18 13:28:34;;;;;;;0.7;0.7;;;;;;;;;;;;;
2024/04/18 13:31:06;;;;;;;1.1;1;;;;;;;;;;;;;
2024/04/18 13:33:28;;;;;;;0.5;0.5;;;;;;;;;;;;;
2024/04/18 13:35:54;;;;;;;0.7;0.6;;;;;;;;;;;;;
2024/04/18 13:38:20;;;;;;;0.7;0.7;;;;;;;;;;;;;
2024/04/18 13:40:47;;;;;;;0.8;0.6;;;;;;;;;;;;;
2024/04/18 13:43:09;;;;;;;0.8;0.8;;;;;;;;;;;;;
2024/04/18 13:45:34;;;;;;;0.7;0.7;;;;;;;;;;;;;
2024/04/18 13:47:59;;;;;;;1.1;1;;;;;;;;;;;;;
2024/04/18 13:50:29;;;;;;;1.4;0.8;;;;;;;;;;;;;
2024/04/18 13:52:50;;;;;;;0.8;0.8;;;;;;;;;;;;;
2024/04/18 13:55:15;;;;;;;1.4;1;;;;;;;;;;;;;
2024/04/18 13:57:40;;;;;;;1.4;1.2;;;;;;;;;;;;;
2024/04/18 14:00:05;;;;;;;1.2;1.1;;;;;;;;;;;;;
2024/04/18 14:02:30;;;;;;;1;1;;;;;;;;;;;;;
2024/04/18 14:04:55;;;;;;;1;0.8;;;;;;;;;;;;;
2024/04/18 14:07:20;;;;;;;0.7;0.7;;;;;;;;;;;;;
2024/04/18 14:09:46;;;;;;;0.8;0.7;;;;;;;;;;;;;
2024/04/18 14:12:11;;;;;;;0.8;0.7;;;;;;;;;;;;;
2024/04/18 14:14:36;;;;;;;0.6;0.6;;;;;;;;;;;;;
2024/04/18 14:19:26;;;;;;;1.9;0.8;;;;;;;;;;;;;
2024/04/18 14:21:51;;;;;;;1;0.9;;;;;;;;;;;;;
2024/04/18 14:24:17;;;;;;;0.8;0.8;;;;;;;;;;;;;
2024/04/18 14:26:41;;;;;;;0.9;0.8;;;;;;;;;;;;;
2024/04/18 14:29:06;;;;;;;1.9;1;;;;;;;;;;;;;
2024/04/18 14:31:31;;;;;;;1.1;1;;;;;;;;;;;;;
2024/04/18 14:33:57;;;;;;;1.3;1.2;;;;;;;;;;;;;
2024/04/18 14:36:22;;;;;;;1.8;1;;;;;;;;;;;;;
2024/04/18 14:38:47;;;;;;;1.1;1;;;;;;;;;;;;;
2024/04/18 14:41:12;;;;;;;1.3;1.2;;;;;;;;;;;;;
2024/04/18 14:43:37;;;;;;;3.8;1.4;;;;;;;;;;;;;
2024/04/18 14:46:02;;;;;;;1.9;1.1;;;;;;;;;;;;;
2024/04/18 14:48:27;;;;;;;1.6;1.2;;;;;;;;;;;;;
2024/04/18 14:50:52;;;;;;;1.6;1.5;;;;;;;;;;;;;
2024/04/18 14:53:18;;;;;;;1.7;1.5;;;;;;;;;;;;;
2024/04/18 14:55:43;;;;;;;2.8;2.2;;;;;;;;;;;;;
2024/04/18 14:58:07;;;;;;;2.7;1.3;;;;;;;;;;;;;
2024/04/18 15:00:33;;;;;;;1.9;1.3;;;;;;;;;;;;;
2024/04/18 15:02:58;;;;;;;1.4;1;;;;;;;;;;;;;
2024/04/18 15:05:23;;;;;;;1;0.9;;;;;;;;;;;;;
2024/04/18 15:07:48;;;;;;;1.3;1.2;;;;;;;;;;;;;
2024/04/18 15:10:13;;;;;;;3.5;2.8;;;;;;;;;;;;;
2024/04/18 15:12:38;;;;;;;5.2;3.9;;;;;;;;;;;;;
2024/04/18 15:15:03;;;;;;;4.9;3.4;;;;;;;;;;;;;
2024/04/18 15:17:29;;;;;;;7.4;5;;;;;;;;;;;;;
2024/04/18 15:19:54;;;;;;;5.4;3.3;;;;;;;;;;;;;
2024/04/18 15:22:19;;;;;;;3;1.9;;;;;;;;;;;;;
2024/04/18 15:24:44;;;;;;;1;0.8;;;;;;;;;;;;;
2024/04/18 15:27:09;;;;;;;1.1;0.7;;;;;;;;;;;;;
2024/04/18 15:29:34;;;;;;;4.6;2;;;;;;;;;;;;;
2024/04/18 15:31:59;;;;;;;0.6;0.6;;;;;;;;;;;;;
2024/04/18 15:34:24;;;;;;;0.6;0.6;;;;;;;;;;;;;
2024/04/18 15:36:49;;;;;;;0.6;0.5;;;;;;;;;;;;;
2024/04/18 15:39:15;;;;;;;0.6;0.6;;;;;;;;;;;;;
2024/04/18 15:41:40;;;;;;;0.6;0.6;;;;;;;;;;;;;
2024/04/18 15:44:06;;;;;;;0.7;0.6;;;;;;;;;;;;;
2024/04/18 15:46:30;;;;;;;0.6;0.6;;;;;;;;;;;;;
2024/04/18 15:48:55;;;;;;;1;0.7;;;;;;;;;;;;;
2024/04/18 15:51:20;;;;;;;0.8;0.8;;;;;;;;;;;;;
2024/04/18 15:53:45;;;;;;;1.5;0.8;;;;;;;;;;;;;
2024/04/18 15:56:11;;;;;;;1.7;0.9;;;;;;;;;;;;;
2024/04/18 15:58:35;;;;;;;1.2;1;;;;;;;;;;;;;
2024/04/18 16:01:01;;;;;;;1.7;1;;;;;;;;;;;;;
2024/04/18 16:03:26;;;;;;;1.3;1.1;;;;;;;;;;;;;
2024/04/18 16:05:51;;;;;;;1.4;1.3;;;;;;;;;;;;;
2024/04/18 16:08:16;;;;;;;4;1.5;;;;;;;;;;;;;
2024/04/18 16:10:41;;;;;;;2;1.2;;;;;;;;;;;;;
2024/04/18 16:13:06;;;;;;;1.5;1.3;;;;;;;;;;;;;
2024/04/18 16:15:31;;;;;;;2;1.5;;;;;;;;;;;;;
2024/04/18 16:17:56;;;;;;;2.7;1.6;;;;;;;;;;;;;
2024/04/18 16:20:22;;;;;;;1.5;1.2;;;;;;;;;;;;;
2024/04/18 16:22:46;;;;;;;0.9;0.9;;;;;;;;;;;;;
2024/04/18 16:25:11;;;;;;;1.9;1.7;;;;;;;;;;;;;
2024/04/18 16:27:37;;;;;;;2.3;2.1;;;;;;;;;;;;;
2024/04/18 16:30:01;;;;;;;1.7;1.6;;;;;;;;;;;;;
2024/04/18 16:32:27;;;;;;;1.6;1.5;;;;;;;;;;;;;
2024/04/18 16:34:52;;;;;;;2.3;1.5;;;;;;;;;;;;;
2024/04/18 16:37:17;;;;;;;1.8;1.6;;;;;;;;;;;;;
2024/04/18 16:39:42;;;;;;;5.3;3.6;;;;;;;;;;;;;
2024/04/18 16:42:08;;;;;;;14.2;8;;;;;;;;;;;;;
2024/04/18 16:44:32;;;;;;;7.9;5.5;;;;;;;;;;;;;
2024/04/18 16:46:58;;;;;;;7.2;4.3;;;;;;;;;;;;;
2024/04/18 16:49:23;;;;;;;2.2;1.4;;;;;;;;;;;;;
2024/04/18 16:51:48;;;;;;;1.3;1.1;;;;;;;;;;;;;
2024/04/18 16:54:13;;;;;;;15.9;10.8;;;;;;;;;;;;;
2024/04/18 16:56:38;;;;;;;3.2;2.6;;;;;;;;;;;;;
2024/04/18 16:59:03;;;;;;;4.6;3.3;;;;;;;;;;;;;
2024/04/18 17:01:28;;;;;;;1.5;1.4;;;;;;;;;;;;;
2024/04/18 17:03:53;;;;;;;1.1;1;;;;;;;;;;;;;
2024/04/18 17:06:18;;;;;;;0.8;0.8;;;;;;;;;;;;;
2024/04/18 17:08:43;;;;;;;0.9;0.8;;;;;;;;;;;;;
2024/04/18 17:11:08;;;;;;;2;1.2;;;;;;;;;;;;;
2024/04/18 17:13:33;;;;;;;1.5;1.4;;;;;;;;;;;;;
2024/04/18 17:15:58;;;;;;;1.2;1.1;;;;;;;;;;;;;
2024/04/18 17:18:24;;;;;;;1.2;1.1;;;;;;;;;;;;;
2024/04/18 17:20:49;;;;;;;3;1.2;;;;;;;;;;;;;
2024/04/18 17:23:14;;;;;;;1.3;1.1;;;;;;;;;;;;;
2024/04/18 17:25:39;;;;;;;1.3;1.2;;;;;;;;;;;;;
2024/04/18 17:28:05;;;;;;;5.7;4.1;;;;;;;;;;;;;
2024/04/18 17:30:30;;;;;;;5.5;3.5;;;;;;;;;;;;;
2024/04/18 17:32:55;;;;;;;3.8;3.1;;;;;;;;;;;;;
2024/04/18 17:35:20;;;;;;;6.3;4.9;;;;;;;;;;;;;
2024/04/18 17:37:45;;;;;;;3.2;2.6;;;;;;;;;;;;;
2024/04/18 17:40:10;;;;;;;2.1;1.7;;;;;;;;;;;;;
2024/04/18 17:42:35;;;;;;;1.8;1.5;;;;;;;;;;;;;
2024/04/18 17:45:00;;;;;;;1.6;1.5;;;;;;;;;;;;;
2024/04/18 17:47:25;;;;;;;1.7;1.5;;;;;;;;;;;;;
2024/04/18 17:49:50;;;;;;;2.2;1.6;;;;;;;;;;;;;
2024/04/18 17:52:17;;;;;;;3.1;2.7;;;;;;;;;;;;;
2024/04/18 17:54:41;;;;;;;2.2;1.6;;;;;;;;;;;;;
2024/04/18 17:57:09;;;;;;;2;1.8;;;;;;;;;;;;;
2024/04/18 17:59:31;;;;;;;1.4;1.3;;;;;;;;;;;;;
2024/04/18 18:01:57;;;;;;;2.1;1.7;;;;;;;;;;;;;
2024/04/18 18:04:22;;;;;;;1.8;1.7;;;;;;;;;;;;;
2024/04/18 18:06:46;;;;;;;2;1.8;;;;;;;;;;;;;
2024/04/18 18:09:11;;;;;;;2.2;2;;;;;;;;;;;;;
2024/04/18 18:11:36;;;;;;;3.1;2.2;;;;;;;;;;;;;
2024/04/18 18:14:02;;;;;;;2.3;1.9;;;;;;;;;;;;;
2024/04/18 18:16:27;;;;;;;2;1.8;;;;;;;;;;;;;
2024/04/18 18:18:52;;;;;;;2.1;1.9;;;;;;;;;;;;;
2024/04/18 18:21:18;;;;;;;1.7;1.4;;;;;;;;;;;;;
2024/04/18 18:23:42;;;;;;;3.5;2.7;;;;;;;;;;;;;
2024/04/18 18:26:07;;;;;;;2;1.8;;;;;;;;;;;;;
2024/04/18 18:28:32;;;;;;;2.1;1.9;;;;;;;;;;;;;
2024/04/18 18:30:59;;;;;;;2.3;2.1;;;;;;;;;;;;;
2024/04/18 18:33:22;;;;;;;2.6;2.4;;;;;;;;;;;;;
2024/04/18 18:35:47;;;;;;;2.4;1.9;;;;;;;;;;;;;
2024/04/18 18:38:13;;;;;;;2;1.8;;;;;;;;;;;;;
2024/04/18 18:40:38;;;;;;;1.4;1.3;;;;;;;;;;;;;
2024/04/18 18:43:03;;;;;;;1.8;1.2;;;;;;;;;;;;;
2024/04/18 18:45:28;;;;;;;2.1;1.5;;;;;;;;;;;;;
2024/04/18 18:47:54;;;;;;;2;1.4;;;;;;;;;;;;;
2024/04/18 18:50:25;;;;;;;1.5;1.3;;;;;;;;;;;;;
2024/04/18 18:52:50;;;;;;;6.8;4.2;;;;;;;;;;;;;
2024/04/18 18:55:15;;;;;;;5.4;3.4;;;;;;;;;;;;;
2024/04/18 18:57:46;;;;;;;2;1.7;;;;;;;;;;;;;
2024/04/18 19:00:05;;;;;;;3.9;2.2;;;;;;;;;;;;;
2024/04/18 19:02:30;;;;;;;2.3;1.9;;;;;;;;;;;;;
2024/04/18 19:04:55;;;;;;;3.3;2.3;;;;;;;;;;;;;
2024/04/18 19:07:21;;;;;;;4.2;2.8;;;;;;;;;;;;;
2024/04/18 19:09:49;;;;;;;3.2;2.8;;;;;;;;;;;;;
2024/04/18 19:12:12;;;;;;;2.6;2.4;;;;;;;;;;;;;
2024/04/18 19:15:06;;;;;;;2.7;2.5;;;;;;;;;;;;;
2024/04/18 19:17:54;;;;;;;2.8;2.4;;;;;;;;;;;;;
2024/04/18 19:20:34;;;;;;;23.8;14.1;;;;;;;;;;;;;
